Time;durP1;ratioP1;P1;durP2;ratioP2;P2;SDS_P1;SDS_P2;PMS_P1;PMS_P2;Temp;Humidity;BMP_temperature;BMP_pressure;BME280_temperature;BME280_humidity;BME280_pressure;Samples;Min_cycle;Max_cycle;Signal;HPM_P1;HPM_P2
2022/07/11 00:00:00;;;;;;;;;;;;;;;16.76;60.12;99953.91;4443768;32;20007;-94
2022/07/11 00:02:25;;;;;;;;;;;;;;;16.75;60.11;99958.31;4443536;32;20032;-92
2022/07/11 00:05:17;;;;;;;;;;;;;;;16.59;60.11;99957.44;4435735;32;20043;-92
2022/07/11 00:07:42;;;;;;;;;;;;;;;16.67;60.11;99959.69;4457180;32;19980;-93
2022/07/11 00:10:07;;;;;;;;;;;;;;;16.69;60.12;99961.28;4444811;32;19969;-93
2022/07/11 00:12:33;;;;;;;;;;;;;;;16.50;60.11;99958.75;4443993;32;20008;-92
2022/07/11 00:15:01;;;;;;;;;;;;;;;16.30;60.09;99966.84;4464639;32;20032;-93
2022/07/11 00:17:26;;;;;;;;;;;;;;;16.48;60.11;99967.66;4453500;32;19992;-93
2022/07/11 00:19:54;;;;;;;;;;;;;;;16.20;60.09;99961.22;4447818;32;19973;-91
2022/07/11 00:22:32;;;;;;;;;;;;;;;16.15;60.08;99963.25;4449517;32;20003;-93
2022/07/11 00:24:57;;;;;;;;;;;;;;;16.25;60.10;99967.09;4433788;32;19993;-92
2022/07/11 00:27:22;;;;;;;;;;;;;;;16.14;60.08;99977.31;4427262;32;19974;-92
2022/07/11 00:29:47;;;;;;;;;;;;;;;15.96;60.08;99973.84;4440558;32;19976;-93
2022/07/11 00:32:13;;;;;;;;;;;;;;;16.04;60.08;99973.44;4425976;32;20012;-92
2022/07/11 00:34:38;;;;;;;;;;;;;;;16.01;60.09;99972.75;4444476;32;20306;-90
2022/07/11 00:37:03;;;;;;;;;;;;;;;16.17;60.09;99971.03;4442843;32;20274;-91
2022/07/11 00:39:28;;;;;;;;;;;;;;;16.14;60.10;99961.56;4442768;32;20067;-91
2022/07/11 00:41:54;;;;;;;;;;;;;;;16.24;60.09;99970.63;4444851;32;19985;-90
2022/07/11 00:44:19;;;;;;;;;;;;;;;16.21;60.09;99956.81;4434459;32;23239;-91
2022/07/11 00:46:44;;;;;;;;;;;;;;;16.49;60.11;99957.06;4452106;32;19988;-92
2022/07/11 00:49:09;;;;;;;;;;;;;;;16.14;60.09;99958.06;4442972;32;20007;-94
2022/07/11 00:51:37;;;;;;;;;;;;;;;16.01;60.09;99957.00;4449644;32;20039;-93
2022/07/11 00:54:02;;;;;;;;;;;;;;;16.02;60.08;99964.78;4439976;32;20025;-93
2022/07/11 00:56:29;;;;;;;;;;;;;;;16.21;60.09;99952.41;4439787;32;19981;-93
2022/07/11 01:00:09;;;;;;;;;;;;;;;16.20;60.09;99955.13;4427918;32;19969;-93
2022/07/11 01:02:25;;;;;;;;;;;;;;;16.16;60.09;99945.72;4402840;32;19970;-93
2022/07/11 01:04:50;;;;;;;;;;;;;;;15.92;60.08;99951.28;4394229;32;20056;-91
2022/07/11 01:07:15;;;;;;;;;;;;;;;15.83;60.06;99949.09;4434804;32;20025;-92
2022/07/11 01:09:40;;;;;;;;;;;;;;;15.75;60.07;99960.94;4444303;32;19976;-92
2022/07/11 01:12:06;;;;;;;;;;;;;;;15.83;60.06;99954.34;4444538;32;20259;-94
2022/07/11 01:14:31;;;;;;;;;;;;;;;15.80;60.07;99956.28;4444435;32;20005;-92
2022/07/11 01:16:59;;;;;;;;;;;;;;;15.71;60.06;99956.75;4444481;32;19996;-93
2022/07/11 01:19:25;;;;;;;;;;;;;;;15.64;60.06;99950.97;4444445;32;20008;-92
2022/07/11 01:21:50;;;;;;;;;;;;;;;15.53;60.05;99954.09;4457011;32;19973;-92
2022/07/11 01:24:15;;;;;;;;;;;;;;;15.43;60.05;99955.47;4457104;32;20039;-92
2022/07/11 01:26:40;;;;;;;;;;;;;;;15.48;60.05;99945.59;4444649;32;19969;-92
2022/07/11 01:29:09;;;;;;;;;;;;;;;15.48;60.05;99944.75;4443944;32;20013;-91
2022/07/11 01:31:34;;;;;;;;;;;;;;;15.30;60.04;99962.22;4456442;32;20329;-89
2022/07/11 01:34:00;;;;;;;;;;;;;;;15.40;60.05;99957.41;4455896;32;20007;-89
2022/07/11 01:36:25;;;;;;;;;;;;;;;15.50;60.05;99949.00;4456059;32;19992;-90
2022/07/11 01:38:50;;;;;;;;;;;;;;;15.48;60.06;99945.59;4442718;32;19991;-89
2022/07/11 01:41:15;;;;;;;;;;;;;;;15.56;60.06;99948.69;4455662;32;19993;-88
2022/07/11 01:43:41;;;;;;;;;;;;;;;15.55;60.06;99951.38;4456255;32;20362;-90
2022/07/11 01:46:06;;;;;;;;;;;;;;;15.58;60.05;99952.09;4470425;32;19980;-89
2022/07/11 01:48:31;;;;;;;;;;;;;;;15.54;60.06;99947.91;4443443;32;20005;-90
2022/07/11 01:50:57;;;;;;;;;;;;;;;15.65;60.05;99948.28;4457158;32;19988;-91
2022/07/11 01:53:22;;;;;;;;;;;;;;;15.82;60.07;99949.19;4457826;32;19989;-91
2022/07/11 01:55:55;;;;;;;;;;;;;;;15.81;60.07;99944.88;4452220;32;19994;-94
2022/07/11 01:58:38;;;;;;;;;;;;;;;15.64;60.06;99956.22;4448657;32;19973;-95
2022/07/11 02:01:22;;;;;;;;;;;;;;;;;;;;;
2022/07/11 02:03:48;;;;;;;;;;;;;;;15.63;60.06;99952.75;4457915;32;35061;-92
2022/07/11 02:06:13;;;;;;;;;;;;;;;15.58;60.05;99952.09;4458345;32;19981;-93
2022/07/11 02:08:56;;;;;;;;;;;;;;;15.72;60.06;99947.97;4445938;32;20756;-92
2022/07/11 02:11:21;;;;;;;;;;;;;;;15.74;60.06;99946.09;4459120;32;20011;-93
2022/07/11 02:13:49;;;;;;;;;;;;;;;15.84;60.06;99942.09;4446184;32;19989;-93
2022/07/11 02:16:35;;;;;;;;;;;;;;;;;;;;;
2022/07/11 02:19:00;;;;;;;;;;;;;;;15.83;60.06;99937.75;4473017;32;35759;-93
2022/07/11 02:21:26;;;;;;;;;;;;;;;15.72;60.06;99934.84;4447579;32;20026;-94
2022/07/11 02:27:50;;;;;;;;;;;;;;;15.80;60.07;99937.91;4454351;32;20072;-94
2022/07/11 02:33:13;;;;;;;;;;;;;;;15.62;60.06;99945.81;4392668;32;19994;-94
2022/07/11 02:35:45;;;;;;;;;;;;;;;15.56;60.05;99945.22;4446337;32;19997;-92
2022/07/11 02:38:14;;;;;;;;;;;;;;;15.44;60.04;99951.06;4445879;32;19969;-92
2022/07/11 02:40:51;;;;;;;;;;;;;;;15.29;60.04;99952.66;4459148;32;20039;-94
2022/07/11 02:43:19;;;;;;;;;;;;;;;15.36;60.04;99952.28;4459496;32;20048;-95
2022/07/11 02:45:44;;;;;;;;;;;;;;;15.37;60.04;99953.13;4446770;32;19992;-92
2022/07/11 02:48:29;;;;;;;;;;;;;;;15.56;60.06;99964.41;4459569;32;19969;-95
2022/07/11 02:50:54;;;;;;;;;;;;;;;15.50;60.05;99964.72;4459708;32;19985;-91
2022/07/11 02:56:14;;;;;;;;;;;;;;;15.60;60.05;99954.66;4458344;32;19989;-93
2022/07/11 02:58:52;;;;;;;;;;;;;;;15.55;60.05;99951.38;4445918;32;20007;-95
2022/07/11 03:02:04;;;;;;;;;;;;;;;15.44;60.04;99946.69;4459123;32;20015;-96
2022/07/11 03:04:32;;;;;;;;;;;;;;;15.39;60.03;99950.44;4465841;32;20340;-95
2022/07/11 03:06:58;;;;;;;;;;;;;;;15.30;60.04;99949.09;4446493;32;20106;-95
2022/07/11 03:09:32;;;;;;;;;;;;;;;15.40;60.04;99946.91;4446700;32;19988;-94
2022/07/11 03:11:57;;;;;;;;;;;;;;;15.17;60.04;99946.22;4445332;32;20047;-91
2022/07/11 03:14:22;;;;;;;;;;;;;;;15.34;60.04;99943.62;4458055;32;19992;-92
2022/07/11 03:16:48;;;;;;;;;;;;;;;15.52;60.04;99952.38;4445263;32;19989;-91
2022/07/11 03:19:13;;;;;;;;;;;;;;;15.57;60.05;99958.25;4444444;32;19991;-93
2022/07/11 03:21:38;;;;;;;;;;;;;;;15.55;60.05;99946.97;4445545;32;20034;-91
2022/07/11 03:24:04;;;;;;;;;;;;;;;15.60;60.05;99947.63;4459103;32;19977;-92
2022/07/11 03:26:29;;;;;;;;;;;;;;;15.65;60.05;99947.44;4446978;32;20013;-92
2022/07/11 03:28:54;;;;;;;;;;;;;;;15.79;60.06;99944.09;4452180;32;20000;-94
2022/07/11 03:31:25;;;;;;;;;;;;;;;15.83;60.07;99948.25;4454653;32;20036;-93
2022/07/11 03:33:56;;;;;;;;;;;;;;;15.53;60.04;99953.22;4445983;32;19957;-95
2022/07/11 03:36:27;;;;;;;;;;;;;;;15.75;60.06;99950.44;4445898;32;20006;-94
2022/07/11 03:39:15;;;;;;;;;;;;;;;15.88;60.07;99946.28;4445927;32;19972;-94
2022/07/11 03:41:43;;;;;;;;;;;;;;;16.01;60.08;99955.22;4448601;32;20019;-93
2022/07/11 03:47:13;;;;;;;;;;;;;;;15.99;60.07;99951.81;4434059;27;20014;-92
2022/07/11 03:55:38;;;;;;;;;;;;;;;16.09;60.08;99949.56;4409383;32;19998;-95
2022/07/11 03:58:30;;;;;;;;;;;;;;;16.19;60.08;99959.53;4398131;32;20035;-95
2022/07/11 04:09:57;;;;;;;;;;;;;;;16.49;60.10;99964.94;4624499;26;20584;-93
2022/07/11 04:15:45;;;;;;;;;;;;;;;16.62;60.11;99970.41;4439896;32;19986;-94
2022/07/11 04:18:10;;;;;;;;;;;;;;;16.72;60.12;99971.63;4441305;32;20007;-89
2022/07/11 04:20:36;;;;;;;;;;;;;;;17.08;60.14;99966.19;4455501;32;20282;-90
2022/07/11 04:23:01;;;;;;;;;;;;;;;17.14;60.13;99972.88;4441657;32;19985;-88
2022/07/11 04:25:26;;;;;;;;;;;;;;;17.39;60.15;99969.72;4455312;32;20249;-89
2022/07/11 04:27:52;;;;;;;;;;;;;;;17.61;60.16;99977.25;4442573;32;19973;-92
2022/07/11 04:30:17;;;;;;;;;;;;;;;17.59;60.16;99968.59;4442280;32;19989;-92
2022/07/11 04:32:42;;;;;;;;;;;;;;;17.92;60.18;99974.53;4442218;32;20007;-90
2022/07/11 04:35:07;;;;;;;;;;;;;;;17.90;60.17;99972.94;4442188;32;22831;-93
2022/07/11 04:37:33;;;;;;;;;;;;;;;17.89;60.17;99969.47;4442583;32;19981;-93
2022/07/11 04:39:58;;;;;;;;;;;;;;;18.00;60.19;99977.59;4444723;32;20034;-92
2022/07/11 04:42:23;;;;;;;;;;;;;;;17.81;60.17;99974.34;4442540;32;20011;-92
2022/07/11 04:44:48;;;;;;;;;;;;;;;18.05;60.18;99978.16;4441962;32;22135;-92
2022/07/11 04:47:14;;;;;;;;;;;;;;;18.13;60.19;99979.50;4429357;32;19985;-91
2022/07/11 04:49:39;;;;;;;;;;;;;;;18.33;60.20;99974.72;4432153;32;20055;-92
2022/07/11 04:52:05;;;;;;;;;;;;;;;18.29;60.19;99981.13;4445354;32;20325;-94
2022/07/11 04:54:31;;;;;;;;;;;;;;;18.32;60.20;99982.72;4430235;32;19981;-92
2022/07/11 04:56:57;;;;;;;;;;;;;;;18.31;60.20;99983.66;4431520;32;20633;-92
2022/07/11 04:59:24;;;;;;;;;;;;;;;18.29;60.19;99977.66;4430943;32;20014;-93
2022/07/11 05:01:50;;;;;;;;;;;;;;;18.45;60.20;99974.91;4431808;32;19973;-92
2022/07/11 05:04:15;;;;;;;;;;;;;;;18.50;60.21;99976.34;4442320;32;19957;-93
2022/07/11 05:06:40;;;;;;;;;;;;;;;18.30;60.20;99976.72;4432588;32;22250;-92
2022/07/11 05:09:07;;;;;;;;;;;;;;;18.10;60.19;99984.00;4428519;32;25723;-92
2022/07/11 05:11:33;;;;;;;;;;;;;;;17.90;60.17;99986.13;4429246;32;19969;-91
2022/07/11 05:13:58;;;;;;;;;;;;;;;18.10;60.18;99980.53;4428798;32;20022;-93
2022/07/11 05:16:23;;;;;;;;;;;;;;;18.18;60.19;99977.44;4428731;32;20028;-93
2022/07/11 05:18:48;;;;;;;;;;;;;;;17.93;60.18;99980.66;4428749;32;19993;-91
2022/07/11 05:21:13;;;;;;;;;;;;;;;18.18;60.20;99970.37;4428504;32;23042;-91
2022/07/11 05:23:39;;;;;;;;;;;;;;;18.10;60.19;99983.16;4428858;32;20003;-90
2022/07/11 05:26:04;;;;;;;;;;;;;;;18.34;60.20;99986.13;4428389;32;20310;-92
2022/07/11 05:28:29;;;;;;;;;;;;;;;18.23;60.20;99983.28;4441652;32;20016;-91
2022/07/11 05:30:55;;;;;;;;;;;;;;;18.27;60.19;99984.81;4428772;32;20015;-92
2022/07/11 05:33:20;;;;;;;;;;;;;;;18.21;60.19;99995.69;4428361;32;22761;-93
2022/07/11 05:35:45;;;;;;;;;;;;;;;18.03;60.18;99995.84;4429443;32;20017;-94
2022/07/11 05:38:10;;;;;;;;;;;;;;;18.02;60.18;100001.22;4430392;32;20001;-94
2022/07/11 05:40:36;;;;;;;;;;;;;;;17.94;60.18;100004.28;4429519;32;19973;-89
2022/07/11 05:43:01;;;;;;;;;;;;;;;17.98;60.17;99999.66;4430712;32;19989;-94
2022/07/11 05:45:26;;;;;;;;;;;;;;;18.13;60.19;100001.41;4430357;32;20020;-92
2022/07/11 05:47:51;;;;;;;;;;;;;;;18.16;60.19;100003.03;4430227;32;20011;-93
2022/07/11 05:50:16;;;;;;;;;;;;;;;18.14;60.19;100002.25;4430558;32;21121;-92
2022/07/11 05:52:42;;;;;;;;;;;;;;;18.29;60.19;99999.56;4430596;32;20238;-91
2022/07/11 05:55:07;;;;;;;;;;;;;;;18.34;60.20;100007.19;4430636;32;19993;-92
2022/07/11 05:57:33;;;;;;;;;;;;;;;18.60;60.21;100001.19;4430480;32;20004;-92
2022/07/11 05:59:58;;;;;;;;;;;;;;;19.07;60.24;100005.34;4430820;32;19989;-95
2022/07/11 06:02:23;;;;;;;;;;;;;;;18.99;60.24;100010.28;4430456;32;20008;-95
2022/07/11 06:04:48;;;;;;;;;;;;;;;18.98;60.23;100012.06;4430565;32;27383;-94
2022/07/11 06:08:40;;;;;;;;;;;;;;;19.09;60.25;100010.53;4430325;32;19993;-93
2022/07/11 06:09:59;;;;;;;;;;;;;;;19.23;60.25;100008.72;4445459;32;19973;-94
2022/07/11 06:12:24;;;;;;;;;;;;;;;19.42;60.26;99999.63;4430244;32;20212;-92
2022/07/11 06:14:49;;;;;;;;;;;;;;;19.57;60.26;100001.28;4430394;32;20363;-94
2022/07/11 06:17:14;;;;;;;;;;;;;;;19.66;60.27;100011.28;4430440;32;22191;-92
2022/07/11 06:19:39;;;;;;;;;;;;;;;19.93;60.28;100006.81;4429926;32;20008;-94
2022/07/11 06:22:05;;;;;;;;;;;;;;;20.21;60.29;100012.88;4442753;32;19981;-92
2022/07/11 06:24:30;;;;;;;;;;;;;;;20.28;60.30;100010.66;4430266;32;20000;-92
2022/07/11 06:27:00;;;;;;;;;;;;;;;20.40;60.31;100013.37;4429842;32;20365;-94
2022/07/11 06:29:25;;;;;;;;;;;;;;;20.38;60.30;100019.69;4430264;32;20421;-93
2022/07/11 06:31:50;;;;;;;;;;;;;;;20.38;60.30;100017.03;4429757;32;21817;-94
2022/07/11 06:34:15;;;;;;;;;;;;;;;20.35;60.31;100019.91;4429757;32;24737;-93
2022/07/11 06:36:41;;;;;;;;;;;;;;;20.34;60.30;100019.00;4435636;32;26165;-93
2022/07/11 06:39:06;;;;;;;;;;;;;;;20.39;60.31;100024.88;4439769;32;19993;-94
2022/07/11 06:41:31;;;;;;;;;;;;;;;20.64;60.32;100015.28;4431576;32;19985;-91
2022/07/11 06:43:56;;;;;;;;;;;;;;;20.37;60.30;100018.84;4429703;32;20016;-94
2022/07/11 06:46:22;;;;;;;;;;;;;;;20.60;60.32;100016.44;4429955;32;21355;-94
2022/07/11 06:48:47;;;;;;;;;;;;;;;20.98;60.34;100011.94;4430272;32;19985;-94
2022/07/11 06:51:12;;;;;;;;;;;;;;;20.97;60.34;100018.19;4429575;32;19984;-93
2022/07/11 06:53:37;;;;;;;;;;;;;;;21.24;60.36;100019.84;4429969;32;20254;-93
2022/07/11 06:56:03;;;;;;;;;;;;;;;21.61;60.37;100013.59;4429771;32;20001;-92
2022/07/11 06:58:31;;;;;;;;;;;;;;;21.88;60.39;100016.00;4442307;32;20022;-92
2022/07/11 07:01:00;;;;;;;;;;;;;;;21.91;60.38;100013.13;4429895;32;20027;-93
2022/07/11 07:03:26;;;;;;;;;;;;;;;21.88;60.39;100013.34;4429653;32;19984;-91
2022/07/11 07:05:55;;;;;;;;;;;;;;;22.16;60.40;100024.56;4429650;32;19996;-94
2022/07/11 07:08:20;;;;;;;;;;;;;;;22.02;60.40;100020.28;4429843;32;19991;-93
2022/07/11 07:10:45;;;;;;;;;;;;;;;22.26;60.41;100021.13;4429445;32;19981;-91
2022/07/11 07:13:10;;;;;;;;;;;;;;;22.47;60.41;100023.06;4429914;32;20012;-93
2022/07/11 07:15:35;;;;;;;;;;;;;;;22.63;60.43;100013.81;4429299;32;20473;-93
2022/07/11 07:18:01;;;;;;;;;;;;;;;22.28;60.41;100026.28;4428848;32;25164;-91
2022/07/11 07:20:26;;;;;;;;;;;;;;;21.83;60.39;100027.91;4442191;32;20246;-93
2022/07/11 07:22:51;;;;;;;;;;;;;;;21.65;60.38;100024.81;4428571;32;22931;-92
2022/07/11 07:25:17;;;;;;;;;;;;;;;21.56;60.37;100021.03;4429200;32;20026;-93
2022/07/11 07:27:42;;;;;;;;;;;;;;;21.67;60.37;100026.38;4429437;32;20019;-93
2022/07/11 07:30:08;;;;;;;;;;;;;;;21.93;60.38;100031.56;4429287;32;20003;-94
2022/07/11 07:32:33;;;;;;;;;;;;;;;22.02;60.40;100022.94;4429396;32;20040;-92
2022/07/11 07:34:58;;;;;;;;;;;;;;;21.97;60.39;100035.66;4429338;32;20247;-92
2022/07/11 07:37:23;;;;;;;;;;;;;;;21.90;60.39;100029.97;4429381;32;19996;-93
2022/07/11 07:39:49;;;;;;;;;;;;;;;21.78;60.38;100030.06;4429655;32;19981;-92
2022/07/11 07:42:14;;;;;;;;;;;;;;;21.83;60.38;100026.09;4429478;32;27359;-93
2022/07/11 07:44:39;;;;;;;;;;;;;;;22.14;60.40;100023.84;4429162;32;25723;-93
2022/07/11 07:47:04;;;;;;;;;;;;;;;22.31;60.41;100028.72;4428973;32;19981;-93
2022/07/11 07:49:30;;;;;;;;;;;;;;;22.10;60.41;100019.72;4429048;32;20017;-92
2022/07/11 07:51:55;;;;;;;;;;;;;;;22.19;60.41;100022.50;4429214;32;19993;-94
2022/07/11 07:54:20;;;;;;;;;;;;;;;21.89;60.39;100022.16;4429243;32;20369;-93
2022/07/11 07:56:46;;;;;;;;;;;;;;;21.83;60.39;100020.81;4428454;32;22341;-92
2022/07/11 07:59:11;;;;;;;;;;;;;;;22.17;60.41;100019.13;4441711;32;20002;-93
2022/07/11 08:01:36;;;;;;;;;;;;;;;22.35;60.42;100009.78;4428879;32;20348;-92
2022/07/11 08:04:02;;;;;;;;;;;;;;;22.42;60.42;100019.91;4441040;32;19986;-94
2022/07/11 08:06:28;;;;;;;;;;;;;;;22.56;60.43;100004.62;4428831;32;20001;-91
2022/07/11 08:08:53;;;;;;;;;;;;;;;23.07;60.44;100000.69;4441673;32;20098;-93
2022/07/11 08:11:18;;;;;;;;;;;;;;;23.13;60.46;100002.84;4436401;32;19957;-93
2022/07/11 08:13:43;;;;;;;;;;;;;;;23.01;60.44;99988.75;4438476;32;19989;-93
2022/07/11 08:16:09;;;;;;;;;;;;;;;22.96;60.45;99991.78;4430007;32;20341;-92
2022/07/11 08:18:34;;;;;;;;;;;;;;;23.05;60.45;99987.53;4429105;32;19985;-91
2022/07/11 08:20:59;;;;;;;;;;;;;;;23.05;60.45;99986.69;4442021;32;20008;-93
2022/07/11 08:23:25;;;;;;;;;;;;;;;23.25;60.45;99986.78;4429149;32;20029;-94
2022/07/11 08:25:50;;;;;;;;;;;;;;;23.34;60.47;99997.62;4429586;32;20305;-92
2022/07/11 08:28:15;;;;;;;;;;;;;;;23.19;60.46;99989.94;4429752;32;20004;-93
2022/07/11 08:30:40;;;;;;;;;;;;;;;23.27;60.46;99991.97;4429107;32;19989;-91
2022/07/11 08:33:06;;;;;;;;;;;;;;;23.20;60.46;100007.56;4428554;32;20286;-91
2022/07/11 08:35:31;;;;;;;;;;;;;;;23.39;60.47;99996.25;4428862;32;20001;-93
2022/07/11 08:37:56;;;;;;;;;;;;;;;23.30;60.46;99988.22;4429151;32;19988;-91
2022/07/11 08:40:21;;;;;;;;;;;;;;;23.26;60.47;99991.13;4442016;32;19988;-91
2022/07/11 08:42:47;;;;;;;;;;;;;;;23.54;60.47;99996.84;4442421;32;20005;-91
2022/07/11 08:45:12;;;;;;;;;;;;;;;23.77;60.49;99984.34;4429876;32;19992;-91
2022/07/11 08:47:37;;;;;;;;;;;;;;;23.74;60.49;99977.47;4442785;32;19982;-91
2022/07/11 08:50:04;;;;;;;;;;;;;;;24.00;60.50;99982.44;4428720;32;20012;-92
2022/07/11 08:52:29;;;;;;;;;;;;;;;24.22;60.52;99978.81;4441777;32;19984;-91
2022/07/11 08:54:55;;;;;;;;;;;;;;;24.34;60.52;99985.75;4428491;32;20333;-90
2022/07/11 08:57:20;;;;;;;;;;;;;;;24.46;60.53;99977.56;4455567;32;19969;-89
2022/07/11 08:59:46;;;;;;;;;;;;;;;24.47;60.52;99971.28;4428107;32;19993;-91
2022/07/11 09:02:11;;;;;;;;;;;;;;;24.70;60.54;99966.62;4441473;32;20341;-91
2022/07/11 09:04:37;;;;;;;;;;;;;;;24.58;60.54;99966.84;4428508;32;19969;-92
2022/07/11 09:07:02;;;;;;;;;;;;;;;24.37;60.53;99962.41;4441000;32;20234;-90
2022/07/11 09:09:28;;;;;;;;;;;;;;;24.33;60.52;99968.09;4428770;32;20015;-92
2022/07/11 09:11:54;;;;;;;;;;;;;;;24.66;60.54;99962.53;4428320;32;20011;-89
2022/07/11 09:14:20;;;;;;;;;;;;;;;24.85;60.55;99960.94;4428266;32;19981;-91
2022/07/11 09:16:55;;;;;;;;;;;;;;;24.46;60.53;99966.09;4427036;32;20046;-91
2022/07/11 09:19:24;;;;;;;;;;;;;;;24.38;60.52;99963.25;4428548;32;20050;-91
2022/07/11 09:27:51;;;;;;;;;;;;;;;24.85;60.55;99951.12;4443087;32;19991;-89
2022/07/11 09:30:17;;;;;;;;;;;;;;;24.91;60.56;99961.22;4441343;32;20045;-91
2022/07/11 09:32:51;;;;;;;;;;;;;;;25.19;60.56;99961.47;4454802;32;20009;-90
2022/07/11 09:35:16;;;;;;;;;;;;;;;25.10;60.56;99947.16;4440918;32;19991;-91
2022/07/11 09:37:41;;;;;;;;;;;;;;;25.22;60.57;99953.22;4427639;32;20672;-91
2022/07/11 09:40:11;;;;;;;;;;;;;;;25.25;60.57;99942.28;4454700;32;19993;-91
2022/07/11 09:42:49;;;;;;;;;;;;;;;25.26;60.57;99944.78;4428230;32;20011;-92
2022/07/11 09:45:15;;;;;;;;;;;;;;;25.09;60.56;99943.66;4442675;32;19969;-91
2022/07/11 09:47:43;;;;;;;;;;;;;;;25.34;60.57;99931.63;4454115;32;19991;-92
2022/07/11 09:50:09;;;;;;;;;;;;;;;25.56;60.58;99938.53;4429624;32;19989;-90
2022/07/11 09:52:34;;;;;;;;;;;;;;;25.36;60.57;99937.66;4428149;32;20394;-90
2022/07/11 09:55:00;;;;;;;;;;;;;;;25.18;60.57;99938.47;4428226;32;21676;-90
2022/07/11 09:57:33;;;;;;;;;;;;;;;25.19;60.56;99942.81;4429301;32;19985;-91
2022/07/11 09:59:59;;;;;;;;;;;;;;;25.12;60.57;99926.56;4429833;32;20345;-91
2022/07/11 10:02:24;;;;;;;;;;;;;;;25.09;60.56;99933.00;4430104;32;20001;-91
2022/07/11 10:04:50;;;;;;;;;;;;;;;25.23;60.57;99934.41;4441386;32;20410;-90
2022/07/11 10:07:15;;;;;;;;;;;;;;;25.57;60.57;99923.38;4427166;32;19981;-92
2022/07/11 10:09:40;;;;;;;;;;;;;;;25.54;60.59;99929.78;4426925;32;19981;-89
2022/07/11 10:12:05;;;;;;;;;;;;;;;25.53;60.59;99940.59;4440163;32;20035;-91
2022/07/11 10:14:31;;;;;;;;;;;;;;;25.58;60.58;99933.06;4427324;32;20317;-89
2022/07/11 10:17:02;;;;;;;;;;;;;;;25.84;60.61;99922.69;4440310;32;19969;-89
2022/07/11 10:19:35;;;;;;;;;;;;;;;25.82;60.60;99930.81;4440201;32;20364;-89
2022/07/11 10:22:15;;;;;;;;;;;;;;;25.67;60.59;99921.56;4440115;32;20790;-90
2022/07/11 10:25:04;;;;;;;;;;;;;;;25.47;60.58;99928.69;4440007;32;19989;-90
2022/07/11 10:27:32;;;;;;;;;;;;;;;25.31;60.57;99933.72;4418273;32;19972;-90
2022/07/11 10:29:57;;;;;;;;;;;;;;;25.39;60.58;99933.88;4456434;32;20314;-90
2022/07/11 10:32:22;;;;;;;;;;;;;;;25.52;60.58;99931.75;4442244;32;19985;-91
2022/07/11 10:35:06;;;;;;;;;;;;;;;25.84;60.61;99925.34;4429396;32;20317;-91
2022/07/11 10:37:50;;;;;;;;;;;;;;;26.34;60.63;99920.62;4456337;32;19996;-89
2022/07/11 10:40:16;;;;;;;;;;;;;;;26.78;60.65;99904.84;4456622;32;20027;-89
2022/07/11 10:42:41;;;;;;;;;;;;;;;26.92;60.66;99898.97;4429291;32;20009;-91
2022/07/11 10:45:08;;;;;;;;;;;;;;;27.12;60.67;99902.41;4429412;32;20003;-90
2022/07/11 10:47:43;;;;;;;;;;;;;;;26.60;60.64;99904.78;4429452;32;19981;-90
2022/07/11 10:50:08;;;;;;;;;;;;;;;26.31;60.64;99911.06;4442152;32;20013;-91
2022/07/11 10:52:33;;;;;;;;;;;;;;;26.01;60.62;99909.44;4456203;32;20284;-90
2022/07/11 10:55:15;;;;;;;;;;;;;;;26.22;60.62;99900.38;4429113;32;20005;-90
2022/07/11 10:57:41;;;;;;;;;;;;;;;26.55;60.65;99891.88;4429166;32;20346;-90
2022/07/11 11:00:09;;;;;;;;;;;;;;;26.63;60.64;99893.81;4429322;32;19957;-90
2022/07/11 11:02:53;;;;;;;;;;;;;;;26.78;60.64;99886.16;4442181;32;20356;-91
2022/07/11 11:05:38;;;;;;;;;;;;;;;26.85;60.66;99888.06;4442705;32;19969;-91
2022/07/11 11:08:03;;;;;;;;;;;;;;;27.35;60.69;99889.44;4442110;32;20022;-91
2022/07/11 11:10:38;;;;;;;;;;;;;;;27.32;60.68;99892.41;4428985;32;20009;-92
2022/07/11 11:13:08;;;;;;;;;;;;;;;27.19;60.67;99890.09;4442211;32;20015;-91
2022/07/11 11:15:34;;;;;;;;;;;;;;;27.15;60.67;99883.38;4442329;32;19996;-94
2022/07/11 11:18:19;;;;;;;;;;;;;;;27.20;60.68;99881.94;4442556;32;19989;-94
2022/07/11 11:20:44;;;;;;;;;;;;;;;27.35;60.68;99890.28;4460158;32;20031;-94
2022/07/11 11:23:10;;;;;;;;;;;;;;;26.84;60.65;99896.22;4441559;32;20768;-93
2022/07/11 11:25:35;;;;;;;;;;;;;;;26.80;60.65;99887.66;4432422;32;20724;-90
2022/07/11 11:28:02;;;;;;;;;;;;;;;26.65;60.65;99888.31;4431598;32;20017;-91
2022/07/11 11:30:27;;;;;;;;;;;;;;;26.59;60.64;99895.94;4430566;32;20600;-91
2022/07/11 11:32:52;;;;;;;;;;;;;;;26.47;60.64;99899.75;4441436;32;31564;-90
2022/07/11 11:35:18;;;;;;;;;;;;;;;26.10;60.62;99897.06;4441666;32;28030;-92
2022/07/11 11:37:43;;;;;;;;;;;;;;;25.86;60.61;99913.56;4429353;32;19985;-91
2022/07/11 11:40:08;;;;;;;;;;;;;;;25.91;60.60;99905.12;4427811;32;28894;-90
2022/07/11 11:42:33;;;;;;;;;;;;;;;25.73;60.60;99902.31;4429226;32;20044;-90
2022/07/11 11:45:00;;;;;;;;;;;;;;;25.84;60.61;99912.84;4429049;32;23982;-90
2022/07/11 11:47:29;;;;;;;;;;;;;;;26.12;60.62;99910.25;4429911;32;20000;-90
2022/07/11 11:49:54;;;;;;;;;;;;;;;26.37;60.63;99904.31;4429180;32;20016;-91
2022/07/11 11:52:19;;;;;;;;;;;;;;;26.38;60.63;99907.81;4428557;32;21458;-92
2022/07/11 11:54:49;;;;;;;;;;;;;;;26.41;60.63;99912.88;4429196;32;20015;-91
2022/07/11 11:57:15;;;;;;;;;;;;;;;26.54;60.65;99911.56;4429346;32;20595;-89
2022/07/11 11:59:40;;;;;;;;;;;;;;;26.43;60.64;99913.56;4441958;32;22691;-90
2022/07/11 12:02:06;;;;;;;;;;;;;;;26.39;60.64;99912.19;4442150;32;19989;-90
2022/07/11 12:04:34;;;;;;;;;;;;;;;26.57;60.64;99911.25;4428953;32;19981;-90
2022/07/11 12:07:00;;;;;;;;;;;;;;;26.65;60.65;99915.00;4429166;32;20427;-93
2022/07/11 12:14:54;;;;;;;;;;;;;;;26.28;60.62;99922.03;4443958;32;20720;-91
2022/07/11 12:17:22;;;;;;;;;;;;;;;26.24;60.63;99907.25;4429164;32;20004;-91
2022/07/11 12:19:48;;;;;;;;;;;;;;;25.86;60.61;99920.72;4456166;32;20041;-91
2022/07/11 12:22:13;;;;;;;;;;;;;;;25.68;60.61;99915.25;4428697;32;24562;-91
2022/07/11 12:24:38;;;;;;;;;;;;;;;25.69;60.60;99909.78;4428673;32;20016;-91
2022/07/11 12:27:03;;;;;;;;;;;;;;;25.79;60.61;99909.78;4441490;32;19981;-92
2022/07/11 12:29:29;;;;;;;;;;;;;;;25.95;60.61;99912.69;4428762;32;20027;-91
2022/07/11 12:31:54;;;;;;;;;;;;;;;26.22;60.63;99895.91;4428591;32;20003;-92
2022/07/11 12:34:20;;;;;;;;;;;;;;;26.47;60.64;99893.59;4441560;32;20010;-93
2022/07/11 12:36:45;;;;;;;;;;;;;;;26.42;60.64;99896.69;4429007;32;19996;-92
2022/07/11 12:39:27;;;;;;;;;;;;;;;26.15;60.61;99904.63;4428602;32;20052;-91
2022/07/11 12:41:52;;;;;;;;;;;;;;;26.22;60.62;99900.38;4401663;32;875695;-92
2022/07/11 12:47:08;;;;;;;;;;;;;;;26.11;60.62;99908.59;4443555;32;20042;-90
2022/07/11 12:49:34;;;;;;;;;;;;;;;26.13;60.62;99907.44;4428615;32;20353;-91
2022/07/11 12:52:02;;;;;;;;;;;;;;;26.15;60.61;99897.47;4441165;32;19984;-92
2022/07/11 12:54:33;;;;;;;;;;;;;;;26.05;60.62;99914.50;4442014;32;19977;-91
2022/07/11 12:57:00;;;;;;;;;;;;;;;25.85;60.61;99911.03;4449564;32;19949;-91
2022/07/11 12:59:26;;;;;;;;;;;;;;;25.60;60.60;99913.25;4449778;32;19993;-92
2022/07/11 13:01:57;;;;;;;;;;;;;;;25.62;60.60;99907.78;4441891;32;20005;-92
2022/07/11 13:04:35;;;;;;;;;;;;;;;25.72;60.60;99903.31;4455345;32;19983;-90
2022/07/11 13:10:07;;;;;;;;;;;;;;;25.52;60.59;99898.94;4455265;32;20001;-91
2022/07/11 13:12:32;;;;;;;;;;;;;;;25.35;60.58;99896.03;4441216;32;20029;-91
2022/07/11 13:15:11;;;;;;;;;;;;;;;25.22;60.58;99898.09;4441031;32;19991;-91
2022/07/11 13:17:40;;;;;;;;;;;;;;;25.46;60.59;99899.50;4429160;32;20020;-90
2022/07/11 13:20:06;;;;;;;;;;;;;;;25.70;60.60;99889.28;4455097;32;20330;-90
2022/07/11 13:22:31;;;;;;;;;;;;;;;25.96;60.61;99885.03;4428054;32;19984;-90
2022/07/11 13:24:56;;;;;;;;;;;;;;;26.14;60.62;99881.63;4440848;32;20016;-91
2022/07/11 13:27:22;;;;;;;;;;;;;;;25.86;60.61;99884.22;4427228;32;26229;-90
2022/07/11 13:29:47;;;;;;;;;;;;;;;25.68;60.61;99883.25;4427422;32;29470;-90
2022/07/11 13:32:12;;;;;;;;;;;;;;;25.64;60.59;99880.00;4428085;32;20003;-91
2022/07/11 13:34:37;;;;;;;;;;;;;;;25.76;60.61;99878.03;4440401;32;19968;-91
2022/07/11 13:37:03;;;;;;;;;;;;;;;25.85;60.61;99866.53;4439902;32;30844;-92